sensor_id;sensor_type;location;lat;lon;timestamp;pressure;altitude;pressure_sealevel;temperature;humidity
2549;BME280;1284;53.520;10.248;2023-05-09T00:00:10;101381.59;;;16.08;45.78
2549;BME280;1284;53.520;10.248;2023-05-09T00:05:03;101386.97;;;16.05;45.91
2549;BME280;1284;53.520;10.248;2023-05-09T00:07:29;101384.22;;;16.01;46.04
2549;BME280;1284;53.520;10.248;2023-05-09T00:09:56;101383.00;;;15.99;46.03
2549;BME280;1284;53.520;10.248;2023-05-09T00:12:21;101382.56;;;15.93;46.27
2549;BME280;1284;53.520;10.248;2023-05-09T00:14:48;101372.06;;;15.88;46.40
2549;BME280;1284;53.520;10.248;2023-05-09T00:17:16;101374.34;;;15.86;46.32
2549;BME280;1284;53.520;10.248;2023-05-09T00:19:43;101375.19;;;15.90;46.29
2549;BME280;1284;53.520;10.248;2023-05-09T00:22:09;101376.31;;;15.89;46.25
2549;BME280;1284;53.520;10.248;2023-05-09T00:24:37;101371.16;;;15.77;46.41
2549;BME280;1284;53.520;10.248;2023-05-09T00:27:03;101374.63;;;15.74;46.61
2549;BME280;1284;53.520;10.248;2023-05-09T00:29:28;101377.31;;;15.74;46.75
2549;BME280;1284;53.520;10.248;2023-05-09T00:31:54;101386.66;;;15.73;46.85
2549;BME280;1284;53.520;10.248;2023-05-09T00:34:19;101385.06;;;15.72;46.50
2549;BME280;1284;53.520;10.248;2023-05-09T00:36:45;101382.31;;;15.69;46.74
2549;BME280;1284;53.520;10.248;2023-05-09T00:39:10;101376.72;;;15.55;46.84
2549;BME280;1284;53.520;10.248;2023-05-09T00:41:36;101373.72;;;15.33;46.82
2549;BME280;1284;53.520;10.248;2023-05-09T00:44:02;101370.84;;;15.49;47.20
2549;BME280;1284;53.520;10.248;2023-05-09T00:46:27;101368.28;;;15.33;47.63
2549;BME280;1284;53.520;10.248;2023-05-09T00:48:54;101367.75;;;15.21;47.22
2549;BME280;1284;53.520;10.248;2023-05-09T00:51:20;101358.78;;;14.91;48.00
2549;BME280;1284;53.520;10.248;2023-05-09T00:53:46;101353.72;;;15.15;48.02
2549;BME280;1284;53.520;10.248;2023-05-09T00:56:13;101348.22;;;14.82;48.62
2549;BME280;1284;53.520;10.248;2023-05-09T00:58:39;101341.63;;;15.09;48.41
2549;BME280;1284;53.520;10.248;2023-05-09T01:01:05;101343.66;;;15.19;48.18
2549;BME280;1284;53.520;10.248;2023-05-09T01:03:31;101341.94;;;15.04;48.48
2549;BME280;1284;53.520;10.248;2023-05-09T01:06:02;101338.47;;;15.04;48.40
2549;BME280;1284;53.520;10.248;2023-05-09T01:14:25;101317.66;;;15.15;48.49
2549;BME280;1284;53.520;10.248;2023-05-09T01:19:56;101305.66;;;15.16;48.93
2549;BME280;1284;53.520;10.248;2023-05-09T01:22:29;101304.06;;;15.11;49.24
2549;BME280;1284;53.520;10.248;2023-05-09T01:28:21;101297.16;;;15.17;49.04
2549;BME280;1284;53.520;10.248;2023-05-09T01:30:53;101301.34;;;15.11;49.40
2549;BME280;1284;53.520;10.248;2023-05-09T01:33:20;101294.53;;;14.95;49.92
2549;BME280;1284;53.520;10.248;2023-05-09T01:35:57;101288.38;;;14.68;49.93
2549;BME280;1284;53.520;10.248;2023-05-09T01:38:24;101296.28;;;14.80;49.74
2549;BME280;1284;53.520;10.248;2023-05-09T01:40:53;101292.38;;;14.78;50.50
2549;BME280;1284;53.520;10.248;2023-05-09T01:43:20;101295.44;;;14.76;49.92
2549;BME280;1284;53.520;10.248;2023-05-09T01:45:48;101295.03;;;14.74;50.37
2549;BME280;1284;53.520;10.248;2023-05-09T01:48:16;101295.00;;;14.44;50.58
2549;BME280;1284;53.520;10.248;2023-05-09T01:50:43;101296.03;;;14.36;50.79
2549;BME280;1284;53.520;10.248;2023-05-09T01:53:10;101294.00;;;14.30;51.19
2549;BME280;1284;53.520;10.248;2023-05-09T01:55:38;101278.78;;;14.48;50.84
2549;BME280;1284;53.520;10.248;2023-05-09T01:58:05;101289.56;;;14.44;50.53
2549;BME280;1284;53.520;10.248;2023-05-09T02:00:33;101286.34;;;14.35;50.90
2549;BME280;1284;53.520;10.248;2023-05-09T02:03:00;101292.59;;;14.39;50.91
2549;BME280;1284;53.520;10.248;2023-05-09T02:05:27;101290.19;;;14.34;51.27
2549;BME280;1284;53.520;10.248;2023-05-09T02:07:54;101300.47;;;14.25;51.26
2549;BME280;1284;53.520;10.248;2023-05-09T02:10:24;101299.53;;;14.14;51.54
2549;BME280;1284;53.520;10.248;2023-05-09T02:12:51;101293.97;;;14.07;51.64
2549;BME280;1284;53.520;10.248;2023-05-09T02:15:17;101285.38;;;14.02;51.61
2549;BME280;1284;53.520;10.248;2023-05-09T02:17:42;101292.59;;;13.94;52.78
2549;BME280;1284;53.520;10.248;2023-05-09T02:20:08;101274.81;;;13.93;52.89
2549;BME280;1284;53.520;10.248;2023-05-09T02:22:39;101273.16;;;14.11;52.19
2549;BME280;1284;53.520;10.248;2023-05-09T02:25:11;101274.59;;;13.83;52.10
2549;BME280;1284;53.520;10.248;2023-05-09T02:27:42;101276.72;;;13.93;52.64
2549;BME280;1284;53.520;10.248;2023-05-09T02:30:13;101275.28;;;13.76;52.54
2549;BME280;1284;53.520;10.248;2023-05-09T02:32:42;101266.91;;;13.85;52.53
2549;BME280;1284;53.520;10.248;2023-05-09T02:35:10;101267.97;;;13.80;52.95
2549;BME280;1284;53.520;10.248;2023-05-09T02:40:06;101269.44;;;13.97;52.93
2549;BME280;1284;53.520;10.248;2023-05-09T02:42:33;101271.19;;;14.08;52.91
2549;BME280;1284;53.520;10.248;2023-05-09T02:45:11;101264.50;;;14.02;52.95
2549;BME280;1284;53.520;10.248;2023-05-09T02:47:37;101262.09;;;13.97;52.86
2549;BME280;1284;53.520;10.248;2023-05-09T02:50:03;101263.00;;;14.05;53.33
2549;BME280;1284;53.520;10.248;2023-05-09T02:52:30;101259.81;;;13.99;52.97
2549;BME280;1284;53.520;10.248;2023-05-09T02:54:56;101254.75;;;13.98;53.09
2549;BME280;1284;53.520;10.248;2023-05-09T02:57:22;101255.84;;;13.93;53.39
2549;BME280;1284;53.520;10.248;2023-05-09T02:59:47;101264.63;;;13.87;53.54
2549;BME280;1284;53.520;10.248;2023-05-09T03:02:13;101260.53;;;13.74;53.69
2549;BME280;1284;53.520;10.248;2023-05-09T03:04:38;101256.03;;;13.39;54.48
2549;BME280;1284;53.520;10.248;2023-05-09T03:07:04;101255.50;;;13.53;54.19
2549;BME280;1284;53.520;10.248;2023-05-09T03:09:32;101256.69;;;13.33;54.96
2549;BME280;1284;53.520;10.248;2023-05-09T03:11:57;101250.44;;;13.29;55.12
2549;BME280;1284;53.520;10.248;2023-05-09T03:14:23;101244.47;;;13.39;55.19
2549;BME280;1284;53.520;10.248;2023-05-09T03:16:48;101248.28;;;13.38;54.96
2549;BME280;1284;53.520;10.248;2023-05-09T03:19:22;101236.75;;;13.03;56.00
2549;BME280;1284;53.520;10.248;2023-05-09T03:21:48;101237.50;;;13.19;55.90
2549;BME280;1284;53.520;10.248;2023-05-09T03:24:14;101240.25;;;13.22;55.88
2549;BME280;1284;53.520;10.248;2023-05-09T03:26:39;101240.91;;;13.35;55.74
2549;BME280;1284;53.520;10.248;2023-05-09T03:29:04;101234.00;;;13.37;56.08
2549;BME280;1284;53.520;10.248;2023-05-09T03:31:31;101230.44;;;13.33;55.82
2549;BME280;1284;53.520;10.248;2023-05-09T03:33:56;101228.06;;;13.32;56.16
2549;BME280;1284;53.520;10.248;2023-05-09T03:36:22;101229.88;;;13.24;56.05
2549;BME280;1284;53.520;10.248;2023-05-09T03:38:49;101232.38;;;13.14;56.65
2549;BME280;1284;53.520;10.248;2023-05-09T03:41:16;101222.81;;;13.01;56.83
2549;BME280;1284;53.520;10.248;2023-05-09T03:43:44;101225.28;;;13.06;57.14
2549;BME280;1284;53.520;10.248;2023-05-09T03:46:10;101227.84;;;13.40;55.95
2549;BME280;1284;53.520;10.248;2023-05-09T03:48:36;101221.81;;;13.28;56.14
2549;BME280;1284;53.520;10.248;2023-05-09T03:51:02;101219.13;;;13.09;56.79
2549;BME280;1284;53.520;10.248;2023-05-09T03:53:30;101215.72;;;13.12;56.81
2549;BME280;1284;53.520;10.248;2023-05-09T03:55:55;101211.44;;;12.73;57.89
2549;BME280;1284;53.520;10.248;2023-05-09T03:58:22;101207.94;;;12.91;58.04
2549;BME280;1284;53.520;10.248;2023-05-09T04:00:47;101201.41;;;12.92;57.75
2549;BME280;1284;53.520;10.248;2023-05-09T04:03:18;101190.66;;;12.57;59.18
2549;BME280;1284;53.520;10.248;2023-05-09T04:05:46;101197.19;;;12.76;58.55
2549;BME280;1284;53.520;10.248;2023-05-09T04:08:21;101190.38;;;12.82;58.85
2549;BME280;1284;53.520;10.248;2023-05-09T04:10:48;101200.25;;;12.93;58.89
2549;BME280;1284;53.520;10.248;2023-05-09T04:13:15;101202.75;;;13.02;58.49
2549;BME280;1284;53.520;10.248;2023-05-09T04:15:41;101190.66;;;13.15;57.84
2549;BME280;1284;53.520;10.248;2023-05-09T04:18:07;101197.72;;;13.19;57.88
2549;BME280;1284;53.520;10.248;2023-05-09T04:20:32;101200.06;;;13.21;57.96
2549;BME280;1284;53.520;10.248;2023-05-09T04:22:58;101199.78;;;13.07;58.20
2549;BME280;1284;53.520;10.248;2023-05-09T04:25:26;101201.91;;;12.79;59.31
2549;BME280;1284;53.520;10.248;2023-05-09T04:27:54;101205.47;;;12.63;59.98
2549;BME280;1284;53.520;10.248;2023-05-09T04:30:19;101211.25;;;12.81;59.64
2549;BME280;1284;53.520;10.248;2023-05-09T04:32:45;101197.81;;;13.04;58.84
2549;BME280;1284;53.520;10.248;2023-05-09T04:35:12;101201.59;;;13.03;59.51
2549;BME280;1284;53.520;10.248;2023-05-09T04:37:41;101204.84;;;13.08;59.28
2549;BME280;1284;53.520;10.248;2023-05-09T04:40:07;101192.47;;;13.07;59.27
2549;BME280;1284;53.520;10.248;2023-05-09T04:42:42;101195.72;;;12.78;60.26
2549;BME280;1284;53.520;10.248;2023-05-09T04:45:08;101196.63;;;12.86;60.33
2549;BME280;1284;53.520;10.248;2023-05-09T04:47:36;101190.75;;;12.80;59.98
2549;BME280;1284;53.520;10.248;2023-05-09T04:50:02;101192.56;;;12.95;60.33
2549;BME280;1284;53.520;10.248;2023-05-09T04:52:28;101190.53;;;13.08;60.01
2549;BME280;1284;53.520;10.248;2023-05-09T04:54:53;101191.09;;;12.79;60.73
2549;BME280;1284;53.520;10.248;2023-05-09T04:57:21;101190.97;;;12.91;61.27
2549;BME280;1284;53.520;10.248;2023-05-09T04:59:52;101179.53;;;13.01;60.57
2549;BME280;1284;53.520;10.248;2023-05-09T05:02:18;101175.22;;;12.96;60.64
2549;BME280;1284;53.520;10.248;2023-05-09T05:04:45;101186.00;;;13.12;60.49
2549;BME280;1284;53.520;10.248;2023-05-09T05:07:10;101193.66;;;12.91;60.40
2549;BME280;1284;53.520;10.248;2023-05-09T05:09:37;101180.78;;;12.84;62.11
2549;BME280;1284;53.520;10.248;2023-05-09T05:12:02;101177.63;;;13.01;61.34
2549;BME280;1284;53.520;10.248;2023-05-09T05:14:31;101171.78;;;13.18;60.76
2549;BME280;1284;53.520;10.248;2023-05-09T05:16:57;101151.75;;;13.19;61.24
2549;BME280;1284;53.520;10.248;2023-05-09T05:19:23;101168.16;;;13.52;60.57
2549;BME280;1284;53.520;10.248;2023-05-09T05:21:49;101167.84;;;13.57;59.92
2549;BME280;1284;53.520;10.248;2023-05-09T05:24:15;101158.66;;;13.88;59.01
2549;BME280;1284;53.520;10.248;2023-05-09T05:26:41;101155.97;;;14.14;58.73
2549;BME280;1284;53.520;10.248;2023-05-09T05:29:06;101144.56;;;14.28;58.30
2549;BME280;1284;53.520;10.248;2023-05-09T05:31:32;101144.88;;;14.53;56.66
2549;BME280;1284;53.520;10.248;2023-05-09T05:33:57;101142.25;;;14.96;56.43
2549;BME280;1284;53.520;10.248;2023-05-09T05:36:23;101141.28;;;15.15;55.98
2549;BME280;1284;53.520;10.248;2023-05-09T05:38:48;101136.00;;;15.29;54.69
2549;BME280;1284;53.520;10.248;2023-05-09T05:41:14;101134.31;;;15.54;53.36
2549;BME280;1284;53.520;10.248;2023-05-09T05:43:40;101137.84;;;15.62;53.54
2549;BME280;1284;53.520;10.248;2023-05-09T05:46:06;101131.81;;;15.86;53.65
2549;BME280;1284;53.520;10.248;2023-05-09T05:48:32;101121.41;;;15.98;53.30
2549;BME280;1284;53.520;10.248;2023-05-09T05:50:59;101132.81;;;16.21;53.26
2549;BME280;1284;53.520;10.248;2023-05-09T05:53:28;101120.44;;;16.38;51.96
2549;BME280;1284;53.520;10.248;2023-05-09T05:55:54;101125.25;;;16.66;51.90
2549;BME280;1284;53.520;10.248;2023-05-09T05:58:20;101129.78;;;16.41;51.50
2549;BME280;1284;53.520;10.248;2023-05-09T06:00:46;101128.69;;;16.49;51.70
2549;BME280;1284;53.520;10.248;2023-05-09T06:03:12;101133.22;;;16.23;51.49
2549;BME280;1284;53.520;10.248;2023-05-09T06:05:56;101128.88;;;16.15;52.41
2549;BME280;1284;53.520;10.248;2023-05-09T06:08:21;101130.38;;;16.06;52.17
2549;BME280;1284;53.520;10.248;2023-05-09T06:10:47;101122.56;;;15.97;52.66
2549;BME280;1284;53.520;10.248;2023-05-09T06:13:12;101124.19;;;16.12;53.18
2549;BME280;1284;53.520;10.248;2023-05-09T06:15:42;101120.94;;;16.54;52.02
2549;BME280;1284;53.520;10.248;2023-05-09T06:18:11;101118.56;;;16.49;51.86
2549;BME280;1284;53.520;10.248;2023-05-09T06:20:37;101118.31;;;16.86;51.50
2549;BME280;1284;53.520;10.248;2023-05-09T06:23:02;101126.50;;;17.14;50.90
2549;BME280;1284;53.520;10.248;2023-05-09T06:25:28;101126.53;;;17.10;50.45
2549;BME280;1284;53.520;10.248;2023-05-09T06:27:53;101127.16;;;16.62;51.58
2549;BME280;1284;53.520;10.248;2023-05-09T06:30:19;101122.97;;;16.82;51.52
2549;BME280;1284;53.520;10.248;2023-05-09T06:32:44;101130.38;;;17.06;51.97
2549;BME280;1284;53.520;10.248;2023-05-09T06:35:09;101113.56;;;16.62;51.73
2549;BME280;1284;53.520;10.248;2023-05-09T06:37:35;101114.81;;;16.89;51.08
2549;BME280;1284;53.520;10.248;2023-05-09T06:40:01;101118.72;;;16.98;50.49
2549;BME280;1284;53.520;10.248;2023-05-09T06:42:29;101103.16;;;16.88;50.40
2549;BME280;1284;53.520;10.248;2023-05-09T06:44:56;101104.75;;;17.14;50.89
2549;BME280;1284;53.520;10.248;2023-05-09T06:47:25;101101.28;;;17.59;49.78
2549;BME280;1284;53.520;10.248;2023-05-09T06:49:50;101105.94;;;17.52;49.31
2549;BME280;1284;53.520;10.248;2023-05-09T06:52:15;101104.34;;;17.79;49.00
2549;BME280;1284;53.520;10.248;2023-05-09T06:54:41;101099.28;;;17.84;48.96
2549;BME280;1284;53.520;10.248;2023-05-09T06:57:06;101103.16;;;17.83;49.69
2549;BME280;1284;53.520;10.248;2023-05-09T06:59:32;101088.41;;;17.70;49.19
2549;BME280;1284;53.520;10.248;2023-05-09T07:01:58;101083.69;;;17.95;49.13
2549;BME280;1284;53.520;10.248;2023-05-09T07:04:23;101073.03;;;18.29;48.19
2549;BME280;1284;53.520;10.248;2023-05-09T07:06:49;101069.84;;;18.45;48.16
2549;BME280;1284;53.520;10.248;2023-05-09T07:09:14;101079.38;;;18.05;48.56
2549;BME280;1284;53.520;10.248;2023-05-09T07:11:44;101068.19;;;17.57;48.85
2549;BME280;1284;53.520;10.248;2023-05-09T07:14:10;101067.44;;;17.50;49.87
2549;BME280;1284;53.520;10.248;2023-05-09T07:16:36;101070.50;;;17.76;49.18
2549;BME280;1284;53.520;10.248;2023-05-09T07:19:01;101068.41;;;18.16;49.42
2549;BME280;1284;53.520;10.248;2023-05-09T07:21:26;101061.69;;;18.38;48.54
2549;BME280;1284;53.520;10.248;2023-05-09T07:23:52;101060.31;;;18.81;47.33
2549;BME280;1284;53.520;10.248;2023-05-09T07:26:17;101056.53;;;19.16;47.63
2549;BME280;1284;53.520;10.248;2023-05-09T07:28:43;101053.69;;;19.33;47.12
2549;BME280;1284;53.520;10.248;2023-05-09T07:31:08;101053.25;;;19.38;46.10
2549;BME280;1284;53.520;10.248;2023-05-09T07:33:34;101048.19;;;18.85;46.30
2549;BME280;1284;53.520;10.248;2023-05-09T07:36:00;101056.28;;;18.96;46.22
2549;BME280;1284;53.520;10.248;2023-05-09T07:38:25;101046.41;;;19.13;46.77
2549;BME280;1284;53.520;10.248;2023-05-09T07:40:51;101048.41;;;19.05;46.75
2549;BME280;1284;53.520;10.248;2023-05-09T07:43:19;101037.22;;;18.92;46.36
2549;BME280;1284;53.520;10.248;2023-05-09T07:45:45;101026.59;;;19.49;46.42
2549;BME280;1284;53.520;10.248;2023-05-09T07:48:11;101030.13;;;19.84;45.60
2549;BME280;1284;53.520;10.248;2023-05-09T07:50:36;101023.84;;;19.87;45.15
2549;BME280;1284;53.520;10.248;2023-05-09T07:53:02;101023.28;;;19.68;45.59
2549;BME280;1284;53.520;10.248;2023-05-09T07:55:27;101015.25;;;19.85;44.86
2549;BME280;1284;53.520;10.248;2023-05-09T07:57:53;101012.75;;;20.31;44.75
2549;BME280;1284;53.520;10.248;2023-05-09T08:02:49;101012.38;;;19.99;45.04
2549;BME280;1284;53.520;10.248;2023-05-09T08:05:15;101006.53;;;19.97;45.14
2549;BME280;1284;53.520;10.248;2023-05-09T08:07:40;101008.56;;;20.23;45.16
2549;BME280;1284;53.520;10.248;2023-05-09T08:10:07;100998.69;;;20.29;44.22
2549;BME280;1284;53.520;10.248;2023-05-09T08:12:33;100994.94;;;20.19;43.61
2549;BME280;1284;53.520;10.248;2023-05-09T08:14:58;100997.91;;;19.98;44.91
2549;BME280;1284;53.520;10.248;2023-05-09T08:17:23;100985.81;;;20.29;44.62
2549;BME280;1284;53.520;10.248;2023-05-09T08:19:49;100991.91;;;20.90;43.88
2549;BME280;1284;53.520;10.248;2023-05-09T08:22:18;100983.13;;;21.02;42.83
2549;BME280;1284;53.520;10.248;2023-05-09T08:24:44;100987.19;;;20.67;43.36
2549;BME280;1284;53.520;10.248;2023-05-09T08:27:11;100988.25;;;20.74;43.56
2549;BME280;1284;53.520;10.248;2023-05-09T08:29:41;100971.09;;;21.19;44.23
2549;BME280;1284;53.520;10.248;2023-05-09T08:32:08;100989.91;;;21.60;42.63
2549;BME280;1284;53.520;10.248;2023-05-09T08:34:33;100965.50;;;21.66;42.59
2549;BME280;1284;53.520;10.248;2023-05-09T08:37:00;100967.66;;;22.13;42.37
2549;BME280;1284;53.520;10.248;2023-05-09T08:39:25;100962.03;;;22.36;42.00
2549;BME280;1284;53.520;10.248;2023-05-09T08:41:53;100965.00;;;22.62;41.07
2549;BME280;1284;53.520;10.248;2023-05-09T08:44:22;100963.31;;;22.48;41.48
2549;BME280;1284;53.520;10.248;2023-05-09T08:47:08;100956.66;;;22.49;41.10
2549;BME280;1284;53.520;10.248;2023-05-09T08:49:34;100958.53;;;22.84;41.58
2549;BME280;1284;53.520;10.248;2023-05-09T08:52:00;100962.31;;;23.06;41.35
2549;BME280;1284;53.520;10.248;2023-05-09T08:54:27;100955.00;;;23.00;40.21
2549;BME280;1284;53.520;10.248;2023-05-09T08:56:52;100956.94;;;23.32;40.54
2549;BME280;1284;53.520;10.248;2023-05-09T08:59:18;100957.16;;;22.92;41.21
2549;BME280;1284;53.520;10.248;2023-05-09T09:01:44;100947.31;;;22.11;40.65
2549;BME280;1284;53.520;10.248;2023-05-09T09:04:10;100948.63;;;22.06;40.93
2549;BME280;1284;53.520;10.248;2023-05-09T09:06:41;100948.72;;;22.19;41.84
2549;BME280;1284;53.520;10.248;2023-05-09T09:09:08;100943.75;;;22.94;42.24
2549;BME280;1284;53.520;10.248;2023-05-09T09:11:34;100932.22;;;23.15;39.92
2549;BME280;1284;53.520;10.248;2023-05-09T09:14:03;100945.13;;;23.02;39.49
2549;BME280;1284;53.520;10.248;2023-05-09T09:16:31;100947.88;;;22.22;40.06
2549;BME280;1284;53.520;10.248;2023-05-09T09:18:57;100934.41;;;22.27;40.26
2549;BME280;1284;53.520;10.248;2023-05-09T09:21:23;100931.16;;;22.97;38.89
2549;BME280;1284;53.520;10.248;2023-05-09T09:23:48;100925.81;;;23.35;39.06
2549;BME280;1284;53.520;10.248;2023-05-09T09:26:14;100930.88;;;23.65;38.22
2549;BME280;1284;53.520;10.248;2023-05-09T09:28:40;100932.13;;;24.01;38.05
2549;BME280;1284;53.520;10.248;2023-05-09T09:31:25;100934.47;;;24.15;37.34
2549;BME280;1284;53.520;10.248;2023-05-09T09:34:01;100925.44;;;24.28;36.97
2549;BME280;1284;53.520;10.248;2023-05-09T09:36:30;100923.84;;;24.64;36.48
2549;BME280;1284;53.520;10.248;2023-05-09T09:39:02;100922.28;;;24.88;37.11
2549;BME280;1284;53.520;10.248;2023-05-09T09:41:36;100921.50;;;24.88;36.58
2549;BME280;1284;53.520;10.248;2023-05-09T09:49:12;100908.81;;;24.06;36.87
2549;BME280;1284;53.520;10.248;2023-05-09T09:51:39;100906.34;;;23.83;36.61
2549;BME280;1284;53.520;10.248;2023-05-09T09:54:09;100923.34;;;24.19;35.76
2549;BME280;1284;53.520;10.248;2023-05-09T09:56:48;100904.72;;;24.48;36.20
2549;BME280;1284;53.520;10.248;2023-05-09T09:59:17;100903.56;;;24.83;35.79
2549;BME280;1284;53.520;10.248;2023-05-09T10:04:21;100889.41;;;25.16;35.48
2549;BME280;1284;53.520;10.248;2023-05-09T10:07:06;100904.88;;;25.35;35.02
2549;BME280;1284;53.520;10.248;2023-05-09T10:09:33;100895.56;;;25.20;35.16
2549;BME280;1284;53.520;10.248;2023-05-09T10:12:04;100885.69;;;25.10;34.35
2549;BME280;1284;53.520;10.248;2023-05-09T10:14:31;100888.63;;;25.37;33.90
2549;BME280;1284;53.520;10.248;2023-05-09T10:16:59;100884.81;;;24.78;35.00
2549;BME280;1284;53.520;10.248;2023-05-09T10:19:26;100874.53;;;25.13;34.96
2549;BME280;1284;53.520;10.248;2023-05-09T10:21:59;100890.16;;;24.94;34.24
2549;BME280;1284;53.520;10.248;2023-05-09T10:27:05;100872.69;;;25.32;34.45
2549;BME280;1284;53.520;10.248;2023-05-09T10:29:35;100876.13;;;25.66;35.19
2549;BME280;1284;53.520;10.248;2023-05-09T10:32:08;100867.47;;;26.17;33.39
2549;BME280;1284;53.520;10.248;2023-05-09T10:34:39;100855.66;;;25.85;33.32
2549;BME280;1284;53.520;10.248;2023-05-09T10:37:07;100848.28;;;26.22;32.89
2549;BME280;1284;53.520;10.248;2023-05-09T10:39:34;100854.16;;;26.60;32.54
2549;BME280;1284;53.520;10.248;2023-05-09T10:42:00;100841.59;;;26.59;33.45
2549;BME280;1284;53.520;10.248;2023-05-09T10:44:26;100823.94;;;26.84;32.88
2549;BME280;1284;53.520;10.248;2023-05-09T10:46:53;100829.13;;;27.09;32.08
2549;BME280;1284;53.520;10.248;2023-05-09T10:52:05;100830.81;;;27.07;33.24
2549;BME280;1284;53.520;10.248;2023-05-09T10:54:31;100827.59;;;25.87;33.06
2549;BME280;1284;53.520;10.248;2023-05-09T10:56:58;100825.75;;;26.42;32.32
2549;BME280;1284;53.520;10.248;2023-05-09T10:59:39;100820.53;;;26.62;31.82
2549;BME280;1284;53.520;10.248;2023-05-09T11:02:10;100808.78;;;25.55;32.75
2549;BME280;1284;53.520;10.248;2023-05-09T11:04:37;100813.34;;;26.55;32.81
2549;BME280;1284;53.520;10.248;2023-05-09T11:07:19;100795.81;;;26.40;31.92
2549;BME280;1284;53.520;10.248;2023-05-09T11:09:50;100786.47;;;26.92;31.17
2549;BME280;1284;53.520;10.248;2023-05-09T11:12:18;100805.16;;;27.06;30.56
2549;BME280;1284;53.520;10.248;2023-05-09T11:14:46;100800.88;;;27.05;30.37
2549;BME280;1284;53.520;10.248;2023-05-09T11:22:18;100788.81;;;27.26;30.92
2549;BME280;1284;53.520;10.248;2023-05-09T11:24:51;100764.28;;;27.10;31.01
2549;BME280;1284;53.520;10.248;2023-05-09T11:27:23;100767.72;;;26.69;31.87
2549;BME280;1284;53.520;10.248;2023-05-09T11:29:51;100762.38;;;26.74;31.65
2549;BME280;1284;53.520;10.248;2023-05-09T11:32:18;100755.28;;;26.46;32.42
2549;BME280;1284;53.520;10.248;2023-05-09T11:34:44;100756.19;;;26.98;31.14
2549;BME280;1284;53.520;10.248;2023-05-09T11:37:16;100740.00;;;27.56;31.09
2549;BME280;1284;53.520;10.248;2023-05-09T11:40:01;100747.63;;;27.28;31.71
2549;BME280;1284;53.520;10.248;2023-05-09T11:42:30;100732.22;;;26.67;31.18
2549;BME280;1284;53.520;10.248;2023-05-09T11:44:57;100733.84;;;27.10;31.84
2549;BME280;1284;53.520;10.248;2023-05-09T11:47:24;100740.94;;;27.53;31.47
2549;BME280;1284;53.520;10.248;2023-05-09T11:49:50;100727.22;;;27.82;30.14
2549;BME280;1284;53.520;10.248;2023-05-09T11:52:18;100733.53;;;27.08;30.13
2549;BME280;1284;53.520;10.248;2023-05-09T11:54:43;100697.25;;;26.46;31.00
2549;BME280;1284;53.520;10.248;2023-05-09T11:57:09;100713.97;;;27.39;30.63
2549;BME280;1284;53.520;10.248;2023-05-09T11:59:37;100711.84;;;26.47;31.08
2549;BME280;1284;53.520;10.248;2023-05-09T12:02:06;100700.28;;;26.85;31.75
2549;BME280;1284;53.520;10.248;2023-05-09T12:04:32;100691.50;;;26.95;31.95
2549;BME280;1284;53.520;10.248;2023-05-09T12:06:58;100702.16;;;26.78;31.98
2549;BME280;1284;53.520;10.248;2023-05-09T12:09:34;100688.97;;;26.46;31.40
2549;BME280;1284;53.520;10.248;2023-05-09T12:12:10;100687.69;;;26.84;30.98
2549;BME280;1284;53.520;10.248;2023-05-09T12:14:36;100679.25;;;26.69;31.34
2549;BME280;1284;53.520;10.248;2023-05-09T12:19:27;100681.56;;;25.22;33.24
2549;BME280;1284;53.520;10.248;2023-05-09T12:21:54;100677.53;;;25.63;32.88
2549;BME280;1284;53.520;10.248;2023-05-09T12:24:20;100667.50;;;26.23;32.85
2549;BME280;1284;53.520;10.248;2023-05-09T12:26:47;100664.28;;;26.07;32.74
2549;BME280;1284;53.520;10.248;2023-05-09T12:29:13;100677.28;;;26.60;32.47
2549;BME280;1284;53.520;10.248;2023-05-09T12:31:40;100670.94;;;26.87;31.69
2549;BME280;1284;53.520;10.248;2023-05-09T12:34:07;100675.72;;;26.68;31.72
2549;BME280;1284;53.520;10.248;2023-05-09T12:36:35;100671.50;;;26.22;31.85
2549;BME280;1284;53.520;10.248;2023-05-09T12:39:01;100670.19;;;26.68;32.29
2549;BME280;1284;53.520;10.248;2023-05-09T12:41:27;100664.34;;;26.85;31.89
2549;BME280;1284;53.520;10.248;2023-05-09T12:43:54;100660.72;;;26.51;31.83
2549;BME280;1284;53.520;10.248;2023-05-09T12:46:20;100669.19;;;26.99;32.24
2549;BME280;1284;53.520;10.248;2023-05-09T12:48:46;100681.16;;;27.05;32.57
2549;BME280;1284;53.520;10.248;2023-05-09T12:51:17;100667.25;;;26.90;32.03
2549;BME280;1284;53.520;10.248;2023-05-09T12:53:44;100674.91;;;26.95;32.06
2549;BME280;1284;53.520;10.248;2023-05-09T12:56:18;100661.97;;;26.41;32.26
2549;BME280;1284;53.520;10.248;2023-05-09T12:58:48;100670.97;;;26.69;32.39
2549;BME280;1284;53.520;10.248;2023-05-09T13:01:15;100672.22;;;26.59;32.20
2549;BME280;1284;53.520;10.248;2023-05-09T13:03:40;100661.97;;;26.32;32.03
2549;BME280;1284;53.520;10.248;2023-05-09T13:06:11;100667.19;;;26.30;33.10
2549;BME280;1284;53.520;10.248;2023-05-09T13:08:37;100666.81;;;26.64;32.28
2549;BME280;1284;53.520;10.248;2023-05-09T13:11:03;100657.06;;;26.36;31.96
2549;BME280;1284;53.520;10.248;2023-05-09T13:13:29;100652.31;;;26.10;32.63
2549;BME280;1284;53.520;10.248;2023-05-09T13:15:55;100649.63;;;25.43;33.31
2549;BME280;1284;53.520;10.248;2023-05-09T13:18:22;100641.41;;;25.70;33.36
2549;BME280;1284;53.520;10.248;2023-05-09T13:20:49;100636.81;;;25.85;33.65
2549;BME280;1284;53.520;10.248;2023-05-09T13:23:15;100641.56;;;25.93;34.10
2549;BME280;1284;53.520;10.248;2023-05-09T13:25:41;100644.66;;;26.14;33.06
2549;BME280;1284;53.520;10.248;2023-05-09T13:28:06;100622.81;;;26.43;32.31
2549;BME280;1284;53.520;10.248;2023-05-09T13:30:33;100628.50;;;26.39;32.73
2549;BME280;1284;53.520;10.248;2023-05-09T13:32:58;100619.56;;;26.53;32.06
2549;BME280;1284;53.520;10.248;2023-05-09T13:38:10;100622.25;;;25.93;32.87
2549;BME280;1284;53.520;10.248;2023-05-09T13:40:35;100615.09;;;25.29;33.10
2549;BME280;1284;53.520;10.248;2023-05-09T13:43:02;100606.72;;;25.60;32.86